createdAt,value
2023-05-07T00:01:48.941Z,100978.63
2023-05-07T00:04:17.364Z,100975.00
2023-05-07T00:06:45.513Z,100971.34
2023-05-07T00:09:13.726Z,100964.94
2023-05-07T00:11:43.382Z,100966.53
2023-05-07T00:14:11.463Z,100956.19
2023-05-07T00:16:39.495Z,100964.50
2023-05-07T00:19:07.730Z,100963.09
2023-05-07T00:21:35.754Z,100960.44
2023-05-07T00:24:03.800Z,100952.53
2023-05-07T00:26:35.307Z,100952.44
2023-05-07T00:29:04.703Z,100956.06
2023-05-07T00:31:33.040Z,100960.44
2023-05-07T00:34:01.074Z,100964.19
2023-05-07T00:36:29.180Z,100955.63
2023-05-07T00:39:01.018Z,100957.34
2023-05-07T00:41:29.120Z,100960.13
2023-05-07T00:43:57.715Z,100960.44
2023-05-07T00:46:27.431Z,100960.56
2023-05-07T00:48:56.286Z,100960.34
2023-05-07T00:51:28.331Z,100968.00
2023-05-07T00:53:56.501Z,100967.16
2023-05-07T00:56:25.659Z,100970.69
2023-05-07T00:58:53.814Z,100966.75
2023-05-07T01:01:22.264Z,100979.56
2023-05-07T01:03:52.030Z,100971.25
2023-05-07T01:06:22.287Z,100973.16
2023-05-07T01:08:53.925Z,100970.47
2023-05-07T01:11:22.699Z,100975.81
2023-05-07T01:13:52.644Z,100978.47
2023-05-07T01:16:21.446Z,100977.31
2023-05-07T01:18:50.128Z,100969.22
2023-05-07T01:21:22.182Z,100974.78
2023-05-07T01:23:51.769Z,100966.88
2023-05-07T01:26:20.667Z,100969.63
2023-05-07T01:28:48.898Z,100964.50
2023-05-07T01:31:19.117Z,100962.78
2023-05-07T01:33:50.149Z,100966.22
2023-05-07T01:36:20.874Z,100965.03
2023-05-07T01:38:51.060Z,100967.59
2023-05-07T01:41:19.564Z,100971.22
2023-05-07T01:43:48.489Z,100972.19
2023-05-07T01:46:17.838Z,100972.84
2023-05-07T01:48:47.311Z,100976.25
2023-05-07T01:51:15.470Z,100971.03
2023-05-07T01:53:44.888Z,100967.81
2023-05-07T01:56:14.305Z,100973.69
2023-05-07T01:58:42.495Z,100972.63
2023-05-07T02:01:10.775Z,100977.00
2023-05-07T02:03:39.768Z,100973.59
2023-05-07T02:06:08.973Z,100968.13
2023-05-07T02:08:37.519Z,100970.25
2023-05-07T02:11:06.144Z,100970.47
2023-05-07T02:13:36.781Z,100965.69
2023-05-07T02:16:06.810Z,100965.03
2023-05-07T02:18:36.739Z,100968.34
2023-05-07T02:21:05.095Z,100969.84
2023-05-07T02:23:33.351Z,100974.75
2023-05-07T02:26:06.137Z,100973.59
2023-05-07T02:28:36.806Z,100976.37
2023-05-07T02:31:05.731Z,100975.41
2023-05-07T02:33:35.629Z,100977.84
2023-05-07T02:36:08.707Z,100983.09
2023-05-07T02:38:37.594Z,100987.34
2023-05-07T02:41:08.363Z,100986.50
2023-05-07T02:43:38.548Z,100986.94
2023-05-07T02:46:08.142Z,100982.22
2023-05-07T02:48:37.093Z,100993.88
2023-05-07T02:51:06.466Z,100995.56
2023-05-07T02:53:34.984Z,100999.09
2023-05-07T02:56:03.859Z,101007.97
2023-05-07T02:58:31.916Z,101002.00
2023-05-07T03:01:01.889Z,100996.53
2023-05-07T03:03:30.696Z,100997.16
2023-05-07T03:05:59.123Z,100989.06
2023-05-07T03:08:27.622Z,100991.72
2023-05-07T03:10:56.109Z,100986.28
2023-05-07T03:13:24.303Z,100987.34
2023-05-07T03:15:52.446Z,100983.72
2023-05-07T03:18:22.412Z,100987.25
2023-05-07T03:20:50.884Z,100988.31
2023-05-07T03:23:19.333Z,100988.09
2023-05-07T03:25:47.539Z,100981.81
2023-05-07T03:28:15.681Z,100985.22
2023-05-07T03:30:44.069Z,100984.38
2023-05-07T03:33:12.481Z,100990.34
2023-05-07T03:35:42.486Z,100996.44
2023-05-07T03:38:10.973Z,100986.50
2023-05-07T03:40:39.798Z,100990.13
2023-05-07T03:43:07.957Z,100985.63
2023-05-07T03:45:36.931Z,100987.34
2023-05-07T03:48:06.652Z,100995.06
2023-05-07T03:50:35.153Z,100994.94
2023-05-07T03:53:04.665Z,100999.09
2023-05-07T03:55:33.212Z,101000.63
2023-05-07T03:58:01.622Z,101014.16
2023-05-07T04:00:30.301Z,101011.31
2023-05-07T04:03:00.413Z,101015.69
2023-05-07T04:05:28.916Z,101022.63
2023-05-07T04:07:57.446Z,101022.28
2023-05-07T04:10:29.180Z,101018.69
2023-05-07T04:12:58.141Z,101017.50
2023-05-07T04:15:26.862Z,101026.91
2023-05-07T04:17:55.117Z,101025.72
2023-05-07T04:20:23.636Z,101028.59
2023-05-07T04:22:52.828Z,101033.41
2023-05-07T04:25:21.071Z,101029.66
2023-05-07T04:27:51.703Z,101032.66
2023-05-07T04:30:20.744Z,101026.25
2023-05-07T04:32:49.922Z,101019.84
2023-05-07T04:35:18.603Z,101014.50
2023-05-07T04:37:47.054Z,101012.56
2023-05-07T04:40:15.824Z,101014.09
2023-05-07T04:42:44.395Z,101021.13
2023-05-07T04:45:14.526Z,101020.91
2023-05-07T04:47:42.919Z,101026.03
2023-05-07T04:50:12.175Z,101035.34
2023-05-07T04:52:41.347Z,101050.50
2023-05-07T04:55:10.981Z,101041.00
2023-05-07T04:57:40.600Z,101044.22
2023-05-07T05:00:11.447Z,101048.59
2023-05-07T05:02:42.969Z,101044.22
2023-05-07T05:05:12.168Z,101042.19
2023-05-07T05:07:40.462Z,101042.09
2023-05-07T05:10:10.092Z,101050.22
2023-05-07T05:12:39.273Z,101048.69
2023-05-07T05:15:08.950Z,101055.56
2023-05-07T05:17:37.649Z,101062.16
2023-05-07T05:20:10.826Z,101061.00
2023-05-07T05:22:49.045Z,101060.34
2023-05-07T05:25:17.648Z,101057.22
2023-05-07T05:27:45.740Z,101053.28
2023-05-07T05:30:14.952Z,101054.16
2023-05-07T05:32:44.596Z,101053.84
2023-05-07T05:35:14.903Z,101059.59
2023-05-07T05:37:43.568Z,101064.94
2023-05-07T05:40:12.829Z,101062.25
2023-05-07T05:42:41.220Z,101073.44
2023-05-07T05:45:11.207Z,101079.62
2023-05-07T05:47:42.575Z,101081.13
2023-05-07T05:50:11.665Z,101087.22
2023-05-07T05:52:41.802Z,101084.84
2023-05-07T05:55:10.929Z,101087.28
2023-05-07T05:57:39.939Z,101088.59
2023-05-07T06:00:10.141Z,101091.06
2023-05-07T06:02:46.804Z,101093.19
2023-05-07T06:05:16.486Z,101097.34
2023-05-07T06:07:46.187Z,101097.78
2023-05-07T06:10:14.581Z,101098.13
2023-05-07T06:12:44.972Z,101099.59
2023-05-07T06:15:13.274Z,101104.19
2023-05-07T06:17:41.939Z,101097.44
2023-05-07T06:20:11.470Z,101091.28
2023-05-07T06:22:40.403Z,101091.91
2023-05-07T06:25:11.723Z,101093.28
2023-05-07T06:27:40.883Z,101091.25
2023-05-07T06:30:10.975Z,101098.81
2023-05-07T06:32:39.633Z,101094.84
2023-05-07T06:35:08.102Z,101097.53
2023-05-07T06:37:39.327Z,101096.34
2023-05-07T06:40:09.230Z,101094.87
2023-05-07T06:42:39.301Z,101100.66
2023-05-07T06:45:20.997Z,101109.44
2023-05-07T06:47:51.190Z,101111.03
2023-05-07T06:50:20.315Z,101114.03
2023-05-07T06:52:50.456Z,101117.94
2023-05-07T06:55:22.620Z,101119.41
2023-05-07T06:57:52.467Z,101111.91
2023-05-07T07:00:21.972Z,101120.72
2023-05-07T07:02:51.914Z,101122.13
2023-05-07T07:05:21.243Z,101127.66
2023-05-07T07:07:55.811Z,101113.28
2023-05-07T07:10:24.685Z,101118.25
2023-05-07T07:12:55.052Z,101111.31
2023-05-07T07:15:25.951Z,101115.47
2023-05-07T07:17:54.983Z,101111.81
2023-05-07T07:20:24.176Z,101109.00
2023-05-07T07:22:52.542Z,101110.03
2023-05-07T07:25:20.921Z,101119.13
2023-05-07T07:27:50.754Z,101116.16
2023-05-07T07:30:20.326Z,101110.84
2023-05-07T07:32:48.597Z,101114.78
2023-05-07T07:35:17.759Z,101120.88
2023-05-07T07:37:50.883Z,101119.69
2023-05-07T07:40:19.602Z,101125.06
2023-05-07T07:42:47.902Z,101118.44
2023-05-07T07:45:16.279Z,101119.22
2023-05-07T07:47:46.192Z,101133.09
2023-05-07T07:50:21.995Z,101133.47
2023-05-07T07:52:54.308Z,101137.28
2023-05-07T07:55:24.033Z,101130.81
2023-05-07T07:57:53.049Z,101129.31
2023-05-07T08:00:22.315Z,101136.38
2023-05-07T08:02:59.058Z,101136.94
2023-05-07T08:05:28.806Z,101143.81
2023-05-07T08:08:00.726Z,101149.91
2023-05-07T08:10:29.774Z,101141.44
2023-05-07T08:12:58.302Z,101150.81
2023-05-07T08:15:26.962Z,101146.97
2023-05-07T08:17:58.509Z,101145.72
2023-05-07T08:20:27.536Z,101154.63
2023-05-07T08:22:56.544Z,101153.91
2023-05-07T08:25:25.848Z,101163.88
2023-05-07T08:27:55.422Z,101161.44
2023-05-07T08:30:24.973Z,101166.81
2023-05-07T08:32:53.923Z,101167.19
2023-05-07T08:35:23.989Z,101160.84
2023-05-07T08:37:52.562Z,101161.28
2023-05-07T08:40:21.539Z,101166.53
2023-05-07T08:42:51.868Z,101165.81
2023-05-07T08:45:21.936Z,101164.75
2023-05-07T08:47:54.881Z,101170.34
2023-05-07T08:50:25.178Z,101171.19
2023-05-07T08:52:54.089Z,101171.53
2023-05-07T08:55:22.915Z,101163.63
2023-05-07T08:57:54.054Z,101171.81
2023-05-07T09:00:23.167Z,101179.56
2023-05-07T09:02:52.876Z,101176.63
2023-05-07T09:05:21.572Z,101180.44
2023-05-07T09:07:53.931Z,101185.72
2023-05-07T09:10:25.751Z,101188.53
2023-05-07T09:12:54.861Z,101190.94
2023-05-07T09:15:26.062Z,101188.59
2023-05-07T09:18:03.662Z,101189.50
2023-05-07T09:20:33.559Z,101185.09
2023-05-07T09:23:04.440Z,101183.41
2023-05-07T09:25:33.787Z,101181.00
2023-05-07T09:28:03.805Z,101183.28
2023-05-07T09:30:34.749Z,101183.03
2023-05-07T09:33:05.312Z,101193.37
2023-05-07T09:35:34.564Z,101192.78
2023-05-07T09:38:05.900Z,101179.28
2023-05-07T09:40:34.565Z,101178.91
2023-05-07T09:43:12.718Z,101182.31
2023-05-07T09:45:45.109Z,101185.03
2023-05-07T09:48:17.949Z,101183.44
2023-05-07T09:50:51.319Z,101180.38
2023-05-07T09:53:22.141Z,101180.97
2023-05-07T09:55:50.941Z,101181.09
2023-05-07T09:58:22.042Z,101183.66
2023-05-07T10:00:52.402Z,101190.16
2023-05-07T10:03:22.127Z,101180.00
2023-05-07T10:05:52.250Z,101177.56
2023-05-07T10:08:22.820Z,101180.97
2023-05-07T10:10:54.439Z,101183.28
2023-05-07T10:13:23.363Z,101190.03
2023-05-07T10:15:52.970Z,101183.19
2023-05-07T10:18:24.600Z,101182.44
2023-05-07T10:20:56.367Z,101187.34
2023-05-07T10:23:28.065Z,101191.00
2023-05-07T10:26:08.325Z,101188.78
2023-05-07T10:28:45.715Z,101188.06
2023-05-07T10:31:35.502Z,101189.03
2023-05-07T10:34:13.132Z,101186.22
2023-05-07T10:36:43.849Z,101197.56
2023-05-07T10:39:14.618Z,101199.53
2023-05-07T10:41:43.792Z,101198.69
2023-05-07T10:44:12.804Z,101199.41
2023-05-07T10:46:41.836Z,101198.53
2023-05-07T10:49:17.693Z,101202.72
2023-05-07T10:51:48.222Z,101199.19
2023-05-07T10:54:25.996Z,101193.66
2023-05-07T10:56:54.708Z,101198.06
2023-05-07T10:59:42.704Z,101204.66
2023-05-07T11:02:15.572Z,101216.72
2023-05-07T11:04:44.575Z,101216.72
2023-05-07T11:07:30.316Z,101208.34
2023-05-07T11:10:06.583Z,101211.88
2023-05-07T11:12:55.993Z,101212.94
2023-05-07T11:15:45.658Z,101204.66
2023-05-07T11:18:18.574Z,101209.94
2023-05-07T11:20:54.115Z,101205.66
2023-05-07T11:24:02.333Z,101206.84
2023-05-07T11:26:43.170Z,101210.28
2023-05-07T11:29:17.447Z,101213.59
2023-05-07T11:31:51.762Z,101210.37
2023-05-07T11:34:24.658Z,101212.97
2023-05-07T11:36:55.050Z,101206.87
2023-05-07T11:39:29.928Z,101205.53
2023-05-07T11:42:00.244Z,101205.50
2023-05-07T11:44:45.095Z,101207.34
2023-05-07T11:47:13.672Z,101207.50
2023-05-07T11:49:42.474Z,101206.59
2023-05-07T11:52:10.605Z,101206.22
2023-05-07T11:54:39.293Z,101213.13
2023-05-07T11:57:09.308Z,101208.66
2023-05-07T11:59:42.089Z,101206.37
2023-05-07T12:02:10.851Z,101213.03
2023-05-07T12:04:40.283Z,101212.47
2023-05-07T12:07:13.013Z,101198.44
2023-05-07T12:09:41.587Z,101213.37
2023-05-07T12:12:11.442Z,101206.75
2023-05-07T12:14:40.610Z,101206.56
2023-05-07T12:17:10.104Z,101206.37
2023-05-07T12:19:39.969Z,101210.00
2023-05-07T12:22:10.220Z,101202.75
2023-05-07T12:24:48.160Z,101201.44
2023-05-07T12:27:19.066Z,101196.41
2023-05-07T12:29:48.525Z,101200.94
2023-05-07T12:32:17.917Z,101193.25
2023-05-07T12:34:46.220Z,101197.16
2023-05-07T12:37:14.900Z,101197.41
2023-05-07T12:39:49.205Z,101203.06
2023-05-07T12:42:24.507Z,101203.72
2023-05-07T12:44:53.266Z,101192.97
2023-05-07T12:47:22.871Z,101190.41
2023-05-07T12:49:51.203Z,101201.50
2023-05-07T12:52:19.521Z,101199.44
2023-05-07T12:54:47.547Z,101208.06
2023-05-07T12:57:15.587Z,101211.47
2023-05-07T12:59:45.792Z,101203.97
2023-05-07T13:02:13.769Z,101203.78
2023-05-07T13:04:42.220Z,101200.69
2023-05-07T13:07:10.625Z,101204.50
2023-05-07T13:09:39.046Z,101207.31
2023-05-07T13:12:08.177Z,101203.91
2023-05-07T13:14:36.498Z,101194.78
2023-05-07T13:17:05.851Z,101195.03
2023-05-07T13:19:33.932Z,101194.28
2023-05-07T13:22:02.586Z,101192.06
2023-05-07T13:24:30.653Z,101193.91
2023-05-07T13:26:58.645Z,101190.94
2023-05-07T13:29:30.960Z,101189.47
2023-05-07T13:31:59.370Z,101199.00
2023-05-07T13:34:30.286Z,101190.63
2023-05-07T13:36:58.524Z,101187.78
2023-05-07T13:39:30.403Z,101196.19
2023-05-07T13:41:59.033Z,101190.59
2023-05-07T13:44:27.230Z,101178.91
2023-05-07T13:46:55.424Z,101180.41
2023-05-07T13:49:23.902Z,101174.19
2023-05-07T13:51:53.324Z,101177.88
2023-05-07T13:54:21.845Z,101176.03
2023-05-07T13:56:50.193Z,101175.94
2023-05-07T13:59:18.715Z,101174.94
2023-05-07T14:01:50.684Z,101173.09
2023-05-07T14:04:19.164Z,101172.78
2023-05-07T14:06:47.250Z,101165.63
2023-05-07T14:09:16.740Z,101162.37
2023-05-07T14:11:45.542Z,101168.84
2023-05-07T14:16:42.416Z,101168.97
2023-05-07T14:19:11.069Z,101163.34
2023-05-07T14:21:39.122Z,101167.25
2023-05-07T14:24:08.751Z,101162.00
2023-05-07T14:26:38.608Z,101161.41
2023-05-07T14:29:08.845Z,101166.53
2023-05-07T14:31:38.412Z,101167.94
2023-05-07T14:34:06.905Z,101157.22
2023-05-07T14:36:35.685Z,101166.56
2023-05-07T14:39:04.493Z,101157.47
2023-05-07T14:41:36.984Z,101158.31
2023-05-07T14:44:09.813Z,101154.41
2023-05-07T14:46:39.608Z,101161.12
2023-05-07T14:49:17.374Z,101157.47
2023-05-07T14:51:46.597Z,101159.31
2023-05-07T14:54:15.863Z,101164.12
2023-05-07T14:56:45.786Z,101166.81
2023-05-07T14:59:16.987Z,101157.44
2023-05-07T15:01:46.562Z,101154.19
2023-05-07T15:04:15.554Z,101149.13
2023-05-07T15:06:44.147Z,101161.34
2023-05-07T15:09:12.120Z,101151.87
2023-05-07T15:11:40.406Z,101168.34
2023-05-07T15:14:08.777Z,101171.56
2023-05-07T15:16:38.279Z,101164.09
2023-05-07T15:19:06.679Z,101170.47
2023-05-07T15:21:35.776Z,101173.41
2023-05-07T15:24:03.951Z,101168.38
2023-05-07T15:26:33.034Z,101169.94
2023-05-07T15:29:01.495Z,101162.84
2023-05-07T15:31:30.853Z,101166.00
2023-05-07T15:34:02.288Z,101164.94
2023-05-07T15:36:30.871Z,101170.88
2023-05-07T15:38:59.264Z,101172.69
2023-05-07T15:41:28.553Z,101170.88
2023-05-07T15:43:56.983Z,101173.69
2023-05-07T15:46:26.872Z,101177.31
2023-05-07T15:48:58.690Z,101178.72
2023-05-07T15:51:29.078Z,101178.16
2023-05-07T15:53:57.480Z,101178.34
2023-05-07T15:56:26.259Z,101187.59
2023-05-07T15:58:54.636Z,101181.97
2023-05-07T16:01:25.870Z,101177.03
2023-05-07T16:03:54.447Z,101175.69
2023-05-07T16:06:22.739Z,101176.72
2023-05-07T16:08:52.213Z,101175.91
2023-05-07T16:11:20.612Z,101173.81
2023-05-07T16:13:48.684Z,101166.69
2023-05-07T16:16:16.785Z,101171.25
2023-05-07T16:18:45.058Z,101176.37
2023-05-07T16:21:13.768Z,101172.63
2023-05-07T16:23:42.165Z,101178.38
2023-05-07T16:26:13.701Z,101171.06
2023-05-07T16:28:41.782Z,101174.62
2023-05-07T16:31:10.092Z,101169.00
2023-05-07T16:33:38.495Z,101165.69
2023-05-07T16:36:07.007Z,101174.91
2023-05-07T16:38:35.153Z,101171.81
2023-05-07T16:41:05.670Z,101173.41
2023-05-07T16:43:35.188Z,101178.66
2023-05-07T16:46:03.597Z,101186.25
2023-05-07T16:48:32.157Z,101185.13
2023-05-07T16:51:00.301Z,101191.25
2023-05-07T16:53:28.552Z,101193.19
2023-05-07T16:55:57.705Z,101188.66
2023-05-07T16:58:27.290Z,101188.31
2023-05-07T17:00:57.011Z,101185.50
2023-05-07T17:03:27.045Z,101181.47
2023-05-07T17:05:56.147Z,101181.34
2023-05-07T17:08:24.131Z,101180.25
2023-05-07T17:10:54.568Z,101179.75
2023-05-07T17:13:22.947Z,101180.72
2023-05-07T17:15:51.199Z,101180.84
2023-05-07T17:18:25.745Z,101188.91
2023-05-07T17:20:54.431Z,101194.16
2023-05-07T17:23:22.639Z,101191.19
2023-05-07T17:25:50.673Z,101192.19
2023-05-07T17:28:18.941Z,101182.63
2023-05-07T17:30:48.196Z,101180.47
2023-05-07T17:33:21.527Z,101188.06
2023-05-07T17:35:56.907Z,101176.91
2023-05-07T17:38:25.220Z,101188.66
2023-05-07T17:40:53.664Z,101188.31
2023-05-07T17:43:23.437Z,101185.63
2023-05-07T17:45:52.497Z,101196.41
2023-05-07T17:48:21.327Z,101193.88
2023-05-07T17:50:49.334Z,101185.13
2023-05-07T17:53:19.373Z,101187.94
2023-05-07T17:55:47.910Z,101187.47
2023-05-07T17:58:16.405Z,101193.19
2023-05-07T18:00:52.823Z,101194.13
2023-05-07T18:04:01.531Z,101190.19
2023-05-07T18:06:29.785Z,101200.34
2023-05-07T18:08:59.581Z,101207.56
2023-05-07T18:11:32.289Z,101209.53
2023-05-07T18:14:01.013Z,101208.59
2023-05-07T18:16:29.109Z,101221.38
2023-05-07T18:18:57.147Z,101222.41
2023-05-07T18:21:25.623Z,101231.50
2023-05-07T18:23:53.714Z,101224.72
2023-05-07T18:26:23.223Z,101233.28
2023-05-07T18:28:51.731Z,101226.31
2023-05-07T18:31:20.702Z,101225.25
2023-05-07T18:33:52.498Z,101230.00
2023-05-07T18:36:20.934Z,101223.59
2023-05-07T18:38:51.688Z,101219.63
2023-05-07T18:41:20.223Z,101230.53
2023-05-07T18:43:49.683Z,101229.66
2023-05-07T18:46:17.806Z,101232.56
2023-05-07T18:48:46.174Z,101238.41
2023-05-07T18:51:14.339Z,101233.28
2023-05-07T18:53:42.705Z,101239.78
2023-05-07T18:56:11.076Z,101235.62
2023-05-07T18:58:39.174Z,101235.81
2023-05-07T19:01:09.003Z,101242.50
2023-05-07T19:03:37.702Z,101243.75
2023-05-07T19:06:06.484Z,101247.06
2023-05-07T19:08:34.554Z,101253.87
2023-05-07T19:11:04.044Z,101256.19
2023-05-07T19:13:32.520Z,101263.19
2023-05-07T19:16:00.942Z,101270.09
2023-05-07T19:18:31.906Z,101267.91
2023-05-07T19:21:00.032Z,101267.41
2023-05-07T19:23:28.517Z,101275.53
2023-05-07T19:25:56.934Z,101274.41
2023-05-07T19:28:26.352Z,101285.09
2023-05-07T19:30:54.526Z,101292.31
2023-05-07T19:33:24.417Z,101300.69
2023-05-07T19:35:58.318Z,101300.50
2023-05-07T19:38:27.138Z,101305.63
2023-05-07T19:40:55.833Z,101307.91
2023-05-07T19:43:23.930Z,101303.97
2023-05-07T19:45:54.843Z,101308.09
2023-05-07T19:48:23.119Z,101312.81
2023-05-07T19:50:51.486Z,101298.66
2023-05-07T19:53:21.162Z,101305.53
2023-05-07T19:55:49.256Z,101310.25
2023-05-07T19:58:17.422Z,101307.19
2023-05-07T20:00:45.752Z,101304.63
2023-05-07T20:03:18.612Z,101304.91
2023-05-07T20:05:47.421Z,101317.50
2023-05-07T20:08:15.836Z,101320.59
2023-05-07T20:10:45.349Z,101319.38
2023-05-07T20:13:13.771Z,101322.88
2023-05-07T20:15:42.399Z,101321.81
2023-05-07T20:18:10.916Z,101327.16
2023-05-07T20:20:38.953Z,101323.72
2023-05-07T20:23:07.901Z,101322.28
2023-05-07T20:25:36.031Z,101318.06
2023-05-07T20:28:05.950Z,101322.81
2023-05-07T20:30:34.326Z,101321.66
2023-05-07T20:33:04.274Z,101333.25
2023-05-07T20:35:32.943Z,101324.47
2023-05-07T20:38:01.742Z,101326.91
2023-05-07T20:40:32.042Z,101325.19
2023-05-07T20:43:00.466Z,101321.75
2023-05-07T20:45:30.663Z,101321.94
2023-05-07T20:47:58.887Z,101318.66
2023-05-07T20:50:27.339Z,101328.63
2023-05-07T20:52:55.997Z,101320.72
2023-05-07T20:55:24.263Z,101322.44
2023-05-07T20:57:52.584Z,101326.03
2023-05-07T21:00:21.454Z,101335.13
2023-05-07T21:02:51.139Z,101335.41
2023-05-07T21:05:19.438Z,101336.84
2023-05-07T21:07:47.784Z,101334.19
2023-05-07T21:10:16.153Z,101340.28
2023-05-07T21:12:44.398Z,101340.78
2023-05-07T21:15:12.746Z,101341.66
2023-05-07T21:17:41.153Z,101338.03
2023-05-07T21:20:12.253Z,101339.66
2023-05-07T21:22:41.067Z,101347.84
2023-05-07T21:25:11.882Z,101340.25
2023-05-07T21:27:41.745Z,101351.41
2023-05-07T21:30:12.063Z,101353.47
2023-05-07T21:32:40.260Z,101358.63
2023-05-07T21:35:10.624Z,101351.91
2023-05-07T21:37:39.194Z,101355.19
2023-05-07T21:40:08.826Z,101353.78
2023-05-07T21:42:37.388Z,101354.81
2023-05-07T21:45:06.829Z,101355.16
2023-05-07T21:47:35.025Z,101345.34
2023-05-07T21:50:03.321Z,101345.34
2023-05-07T21:52:32.704Z,101353.44
2023-05-07T21:55:01.004Z,101346.03
2023-05-07T21:57:33.218Z,101343.81
2023-05-07T22:00:01.462Z,101346.38
2023-05-07T22:02:29.974Z,101347.91
2023-05-07T22:04:58.596Z,101344.12
2023-05-07T22:07:26.723Z,101344.22
2023-05-07T22:09:56.085Z,101350.44
2023-05-07T22:12:24.405Z,101343.56
2023-05-07T22:14:52.593Z,101353.16
2023-05-07T22:17:20.700Z,101352.09
2023-05-07T22:19:49.015Z,101349.72
2023-05-07T22:22:19.063Z,101352.00
2023-05-07T22:24:47.316Z,101348.81
2023-05-07T22:27:17.034Z,101352.81
2023-05-07T22:29:45.062Z,101347.72
2023-05-07T22:32:13.458Z,101356.81
2023-05-07T22:34:41.771Z,101348.44
2023-05-07T22:37:09.770Z,101340.78
2023-05-07T22:39:37.735Z,101341.94
2023-05-07T22:42:07.465Z,101335.94
2023-05-07T22:44:36.836Z,101339.47
2023-05-07T22:47:05.016Z,101341.47
2023-05-07T22:49:35.270Z,101341.41
2023-05-07T22:52:03.322Z,101348.87
2023-05-07T22:54:32.108Z,101354.63
2023-05-07T22:57:00.615Z,101347.81
2023-05-07T22:59:28.812Z,101347.81
2023-05-07T23:01:58.256Z,101349.69
2023-05-07T23:04:27.422Z,101349.91
2023-05-07T23:06:55.582Z,101358.06
2023-05-07T23:09:23.896Z,101365.16
2023-05-07T23:11:52.144Z,101365.37
2023-05-07T23:14:21.230Z,101360.47
2023-05-07T23:16:50.562Z,101354.84
2023-05-07T23:19:20.265Z,101355.78
2023-05-07T23:21:48.410Z,101353.13
2023-05-07T23:24:16.507Z,101350.12
2023-05-07T23:26:45.152Z,101347.72
2023-05-07T23:29:13.184Z,101350.50
2023-05-07T23:31:41.316Z,101352.56
2023-05-07T23:34:09.640Z,101345.25
2023-05-07T23:36:38.968Z,101349.19
2023-05-07T23:39:07.697Z,101347.75
2023-05-07T23:41:36.135Z,101353.62
2023-05-07T23:44:04.433Z,101346.19
2023-05-07T23:46:32.610Z,101345.75
2023-05-07T23:49:01.107Z,101347.28
2023-05-07T23:51:29.176Z,101349.34
2023-05-07T23:53:58.484Z,101338.72
2023-05-07T23:56:26.727Z,101343.09
2023-05-07T23:58:54.753Z,101335.09
